createdAt,value
2022-08-19T00:02:02.729Z,10.43
2022-08-19T00:04:33.775Z,9.82
2022-08-19T00:07:01.411Z,9.55
2022-08-19T00:09:28.676Z,11.20
2022-08-19T00:11:56.571Z,11.10
2022-08-19T00:14:25.438Z,12.43
2022-08-19T00:16:55.158Z,11.90
2022-08-19T00:19:23.043Z,14.45
2022-08-19T00:21:50.352Z,15.60
2022-08-19T00:24:17.378Z,14.50
2022-08-19T00:26:46.344Z,14.38
2022-08-19T00:29:15.608Z,14.82
2022-08-19T00:31:43.737Z,16.50
2022-08-19T00:34:12.830Z,17.63
2022-08-19T00:36:40.735Z,16.88
2022-08-19T00:39:08.938Z,16.67
2022-08-19T00:41:35.837Z,15.32
2022-08-19T00:44:11.759Z,15.15
2022-08-19T00:46:40.907Z,15.00
2022-08-19T00:49:33.709Z,13.85
2022-08-19T00:52:14.818Z,13.45
2022-08-19T00:54:43.084Z,13.38
2022-08-19T00:57:14.047Z,11.70
2022-08-19T01:00:01.155Z,11.88
2022-08-19T01:02:31.837Z,14.60
2022-08-19T01:04:59.946Z,15.50
2022-08-19T01:07:26.877Z,17.77
2022-08-19T01:09:54.542Z,17.05
2022-08-19T01:12:22.521Z,17.15
2022-08-19T01:14:51.076Z,19.10
2022-08-19T01:17:18.676Z,19.13
2022-08-19T01:19:47.693Z,17.42
2022-08-19T01:22:52.231Z,18.65
2022-08-19T01:25:25.075Z,18.23
2022-08-19T01:27:54.012Z,16.92
2022-08-19T01:30:25.950Z,16.70
2022-08-19T01:32:54.888Z,15.02
2022-08-19T01:35:24.524Z,14.80
2022-08-19T01:37:56.370Z,13.07
2022-08-19T01:40:27.021Z,13.43
2022-08-19T01:42:54.800Z,14.90
2022-08-19T01:45:24.022Z,14.55
2022-08-19T01:47:52.780Z,15.80
2022-08-19T01:50:30.547Z,17.75
2022-08-19T01:53:06.257Z,22.80
2022-08-19T01:55:41.006Z,18.75
2022-08-19T01:58:13.096Z,17.27
2022-08-19T02:00:40.403Z,16.77
2022-08-19T02:03:07.744Z,19.75
2022-08-19T02:05:34.645Z,21.92
2022-08-19T02:08:01.525Z,26.48
2022-08-19T02:10:28.341Z,26.75
2022-08-19T02:12:55.267Z,27.60
2022-08-19T02:15:23.420Z,23.05
2022-08-19T02:17:50.438Z,22.48
2022-08-19T02:20:17.322Z,22.25
2022-08-19T02:22:44.710Z,22.92
2022-08-19T02:25:15.282Z,22.40
2022-08-19T02:27:43.106Z,24.23
2022-08-19T02:30:16.631Z,24.17
2022-08-19T02:32:44.702Z,23.90
2022-08-19T02:35:22.017Z,26.05
2022-08-19T02:38:07.420Z,28.10
2022-08-19T02:40:35.325Z,27.42
2022-08-19T02:43:08.385Z,28.05
2022-08-19T02:45:36.712Z,28.33
2022-08-19T02:48:21.061Z,26.42
2022-08-19T02:50:53.861Z,32.45
2022-08-19T02:53:20.803Z,26.67
2022-08-19T02:55:48.347Z,27.42
2022-08-19T02:58:16.382Z,28.33
2022-08-19T03:00:45.577Z,28.17
2022-08-19T03:03:12.584Z,28.75
2022-08-19T03:05:48.382Z,29.00
2022-08-19T03:08:23.255Z,29.88
2022-08-19T03:10:50.062Z,29.65
2022-08-19T03:13:18.824Z,27.55
2022-08-19T03:15:48.361Z,30.33
2022-08-19T03:18:16.238Z,28.23
2022-08-19T03:20:50.760Z,30.60
2022-08-19T03:23:17.988Z,30.60
2022-08-19T03:25:47.558Z,28.50
2022-08-19T03:28:29.937Z,28.70
2022-08-19T03:31:00.069Z,33.17
2022-08-19T03:33:29.806Z,30.27
2022-08-19T03:36:06.472Z,28.30
2022-08-19T03:38:33.827Z,28.80
2022-08-19T03:41:07.268Z,28.85
2022-08-19T03:43:35.699Z,32.47
2022-08-19T03:46:11.982Z,25.95
2022-08-19T03:48:41.034Z,28.35
2022-08-19T03:51:09.299Z,28.77
2022-08-19T03:53:36.452Z,28.50
2022-08-19T03:56:03.870Z,28.30
2022-08-19T03:58:31.086Z,30.45
2022-08-19T04:00:58.867Z,30.88
2022-08-19T04:03:27.710Z,28.75
2022-08-19T04:05:54.837Z,28.58
2022-08-19T04:08:23.292Z,28.35
2022-08-19T04:10:50.398Z,27.13
2022-08-19T04:13:18.813Z,27.75
2022-08-19T04:15:47.601Z,28.58
2022-08-19T04:18:14.535Z,31.20
2022-08-19T04:20:45.950Z,33.67
2022-08-19T04:23:14.812Z,30.48
2022-08-19T04:25:44.358Z,26.52
2022-08-19T04:28:13.628Z,28.98
2022-08-19T04:30:46.965Z,27.23
2022-08-19T04:33:16.480Z,32.00
2022-08-19T04:35:47.728Z,34.08
2022-08-19T04:38:16.197Z,27.65
2022-08-19T04:41:04.536Z,24.42
2022-08-19T04:43:32.436Z,24.20
2022-08-19T04:46:04.925Z,25.63
2022-08-19T04:48:33.220Z,27.83
2022-08-19T04:51:07.792Z,30.60
2022-08-19T04:53:38.030Z,29.90
2022-08-19T04:56:13.444Z,30.52
2022-08-19T04:58:43.453Z,28.83
2022-08-19T05:01:13.965Z,21.70
2022-08-19T05:03:40.882Z,21.83
2022-08-19T05:06:11.314Z,23.38
2022-08-19T05:08:44.165Z,25.80
2022-08-19T05:11:15.513Z,27.42
2022-08-19T05:13:43.877Z,26.90
2022-08-19T05:16:13.883Z,24.50
2022-08-19T05:19:00.320Z,24.73
2022-08-19T05:21:46.699Z,25.65
2022-08-19T05:24:15.495Z,24.60
2022-08-19T05:26:46.472Z,25.30
2022-08-19T05:29:15.968Z,24.70
2022-08-19T05:31:43.202Z,28.73
2022-08-19T05:34:20.474Z,28.77
2022-08-19T05:36:47.627Z,29.92
2022-08-19T05:39:18.058Z,27.63
2022-08-19T05:41:50.269Z,28.35
2022-08-19T05:44:18.204Z,26.73
2022-08-19T05:46:48.956Z,26.23
2022-08-19T05:49:17.592Z,26.05
2022-08-19T05:51:44.501Z,24.60
2022-08-19T05:54:14.292Z,24.83
2022-08-19T05:56:44.707Z,22.83
2022-08-19T05:59:12.333Z,24.60
2022-08-19T06:01:40.744Z,23.88
2022-08-19T06:04:08.166Z,22.20
2022-08-19T06:06:36.239Z,20.60
2022-08-19T06:09:08.515Z,21.58
2022-08-19T06:11:45.948Z,21.10
2022-08-19T06:14:27.765Z,20.38
2022-08-19T06:16:57.142Z,20.70
2022-08-19T06:19:25.298Z,23.05
2022-08-19T06:21:53.934Z,23.25
2022-08-19T06:24:26.857Z,22.65
2022-08-19T06:27:00.849Z,23.45
2022-08-19T06:29:29.254Z,24.58
2022-08-19T06:31:58.910Z,26.23
2022-08-19T06:34:28.975Z,25.98
2022-08-19T06:36:57.957Z,25.00
2022-08-19T06:39:28.486Z,26.23
2022-08-19T06:42:02.382Z,25.73
2022-08-19T06:44:35.388Z,24.60
2022-08-19T06:47:14.667Z,26.17
2022-08-19T06:49:50.450Z,25.98
2022-08-19T06:52:18.341Z,25.90
2022-08-19T06:54:55.783Z,26.50
2022-08-19T06:57:25.206Z,26.27
2022-08-19T06:59:52.467Z,25.40
2022-08-19T07:02:20.188Z,23.65
2022-08-19T07:04:47.039Z,24.08
2022-08-19T07:07:19.863Z,22.92
2022-08-19T07:09:57.279Z,22.60
2022-08-19T07:12:33.891Z,22.98
2022-08-19T07:15:04.759Z,21.70
2022-08-19T07:17:34.505Z,22.55
2022-08-19T07:20:05.563Z,21.90
2022-08-19T07:22:35.159Z,20.77
2022-08-19T07:25:05.074Z,20.77
2022-08-19T07:27:33.655Z,21.65
2022-08-19T07:30:01.444Z,21.30
2022-08-19T07:32:28.390Z,21.95
2022-08-19T07:34:56.626Z,22.83
2022-08-19T07:37:32.009Z,23.23
2022-08-19T07:40:00.674Z,24.50
2022-08-19T07:42:29.271Z,23.80
2022-08-19T07:44:56.102Z,24.15
2022-08-19T07:47:50.159Z,21.75
2022-08-19T07:50:12.390Z,22.80
2022-08-19T07:52:40.495Z,21.55
2022-08-19T07:55:40.333Z,22.02
2022-08-19T07:57:56.649Z,21.17
2022-08-19T08:00:24.520Z,21.60
2022-08-19T08:02:55.439Z,20.23
2022-08-19T08:05:44.058Z,20.38
2022-08-19T08:08:30.728Z,19.38
2022-08-19T08:10:57.725Z,19.38
2022-08-19T08:13:25.602Z,20.17
2022-08-19T08:15:54.585Z,19.17
2022-08-19T08:18:27.612Z,18.45
2022-08-19T08:20:55.976Z,16.73
2022-08-19T08:23:23.254Z,17.15
2022-08-19T08:25:50.544Z,16.63
2022-08-19T08:28:18.906Z,16.00
2022-08-19T08:30:48.986Z,14.50
2022-08-19T08:33:33.192Z,15.25
2022-08-19T08:38:41.348Z,13.65
2022-08-19T08:41:29.820Z,13.27
2022-08-19T08:43:58.324Z,12.90
2022-08-19T08:46:35.377Z,12.02
2022-08-19T08:49:02.262Z,9.70
2022-08-19T08:54:14.772Z,8.35
2022-08-19T08:56:44.095Z,8.65
2022-08-19T08:59:32.293Z,8.63
2022-08-19T09:02:00.391Z,8.90
2022-08-19T09:04:27.636Z,9.38
2022-08-19T09:07:35.927Z,9.63
2022-08-19T09:10:25.877Z,8.73
2022-08-19T09:13:01.548Z,10.35
2022-08-19T09:15:40.322Z,9.43
2022-08-19T09:18:09.386Z,11.52
2022-08-19T09:20:43.070Z,11.43
2022-08-19T09:23:11.763Z,10.23
2022-08-19T09:25:41.009Z,9.40
2022-08-19T09:28:22.448Z,8.73
2022-08-19T09:30:52.951Z,9.90
2022-08-19T09:33:20.815Z,8.93
2022-08-19T09:35:53.212Z,6.63
2022-08-19T09:38:21.864Z,6.07
2022-08-19T09:40:50.462Z,6.80
2022-08-19T09:43:33.091Z,6.47
2022-08-19T09:46:01.896Z,6.47
2022-08-19T09:48:28.703Z,5.80
2022-08-19T09:50:55.698Z,5.40
2022-08-19T09:53:25.355Z,4.40
2022-08-19T09:55:52.768Z,3.95
2022-08-19T09:58:22.341Z,4.80
2022-08-19T10:00:54.849Z,5.30
2022-08-19T10:03:22.062Z,5.88
2022-08-19T10:05:55.114Z,5.25
2022-08-19T10:08:26.674Z,3.83
2022-08-19T10:10:55.891Z,4.53
2022-08-19T10:13:27.043Z,4.60
2022-08-19T10:15:57.307Z,4.40
2022-08-19T10:18:25.488Z,4.85
2022-08-19T10:20:54.533Z,2.78
2022-08-19T10:23:22.178Z,3.05
2022-08-19T10:25:50.589Z,3.63
2022-08-19T10:28:19.136Z,3.28
2022-08-19T10:30:46.628Z,3.67
2022-08-19T10:33:13.671Z,3.60
2022-08-19T10:35:56.322Z,3.55
2022-08-19T10:38:31.466Z,3.42
2022-08-19T10:40:59.449Z,3.00
2022-08-19T10:43:26.408Z,3.20
2022-08-19T10:45:57.249Z,2.72
2022-08-19T10:48:24.062Z,2.95
2022-08-19T10:51:09.642Z,2.72
2022-08-19T10:53:36.503Z,3.28
2022-08-19T10:56:22.284Z,3.17
2022-08-19T11:01:16.944Z,3.58
2022-08-19T11:03:46.380Z,3.80
2022-08-19T11:06:13.178Z,3.45
2022-08-19T11:08:40.313Z,3.42
2022-08-19T11:11:08.623Z,4.05
2022-08-19T11:13:38.735Z,3.65
2022-08-19T11:16:09.479Z,4.93
2022-08-19T11:18:39.141Z,4.00
2022-08-19T11:21:08.179Z,4.07
2022-08-19T11:23:35.111Z,3.72
2022-08-19T11:26:02.335Z,3.65
2022-08-19T11:28:29.568Z,3.80
2022-08-19T11:30:56.346Z,4.30
2022-08-19T11:33:23.434Z,4.00
2022-08-19T11:35:50.537Z,3.05
2022-08-19T11:38:17.356Z,2.72
2022-08-19T11:40:44.167Z,2.70
2022-08-19T11:43:10.956Z,2.53
2022-08-19T11:45:37.799Z,2.60
2022-08-19T11:48:04.705Z,2.88
2022-08-19T11:50:31.498Z,2.75
2022-08-19T11:52:58.391Z,3.03
2022-08-19T11:55:25.444Z,3.22
2022-08-19T11:57:52.286Z,2.28
2022-08-19T12:00:19.353Z,2.20
2022-08-19T12:02:47.223Z,2.30
2022-08-19T12:05:14.133Z,2.00
2022-08-19T12:07:42.415Z,2.20
2022-08-19T12:10:10.778Z,2.15
2022-08-19T12:12:43.340Z,2.08
2022-08-19T12:15:11.849Z,2.30
2022-08-19T12:17:39.052Z,1.67
2022-08-19T12:20:07.562Z,1.80
2022-08-19T12:22:34.427Z,1.80
2022-08-19T12:25:01.794Z,2.30
2022-08-19T12:27:40.006Z,1.80
2022-08-19T12:30:10.107Z,2.92
2022-08-19T12:32:37.353Z,2.60
2022-08-19T12:35:05.096Z,2.65
2022-08-19T12:37:33.142Z,2.25
2022-08-19T12:40:00.387Z,2.10
2022-08-19T12:42:27.712Z,2.92
2022-08-19T12:44:54.621Z,2.30
2022-08-19T12:47:21.999Z,2.60
2022-08-19T12:49:54.927Z,2.20
2022-08-19T12:52:28.045Z,2.17
2022-08-19T12:54:56.646Z,2.50
2022-08-19T12:57:31.927Z,2.60
2022-08-19T13:00:12.877Z,2.80
2022-08-19T13:02:41.623Z,3.22
2022-08-19T13:05:11.432Z,2.75
2022-08-19T13:07:40.223Z,2.65
2022-08-19T13:10:09.331Z,2.53
2022-08-19T13:12:36.600Z,2.80
2022-08-19T13:15:04.021Z,2.58
2022-08-19T13:17:39.400Z,2.42
2022-08-19T13:20:11.346Z,2.22
2022-08-19T13:22:39.432Z,2.67
2022-08-19T13:25:08.372Z,3.00
2022-08-19T13:27:35.345Z,3.72
2022-08-19T13:30:23.131Z,3.20
2022-08-19T13:33:08.456Z,2.92
2022-08-19T13:35:35.474Z,3.20
2022-08-19T13:38:11.779Z,2.90
2022-08-19T13:40:41.248Z,2.88
2022-08-19T13:43:22.310Z,3.20
2022-08-19T13:45:53.784Z,2.92
2022-08-19T13:48:20.700Z,2.92
2022-08-19T13:50:50.235Z,3.60
2022-08-19T13:53:17.866Z,3.00
2022-08-19T13:55:45.355Z,2.45
2022-08-19T13:58:13.123Z,2.90
2022-08-19T14:00:43.292Z,3.30
2022-08-19T14:03:10.537Z,3.55
2022-08-19T14:05:38.155Z,3.17
2022-08-19T14:08:05.480Z,3.10
2022-08-19T14:10:32.929Z,2.55
2022-08-19T14:13:01.702Z,2.90
2022-08-19T14:15:29.818Z,3.42
2022-08-19T14:17:57.315Z,3.20
2022-08-19T14:20:26.049Z,2.95
2022-08-19T14:22:53.979Z,3.10
2022-08-19T14:25:25.015Z,2.45
2022-08-19T14:27:52.679Z,2.45
2022-08-19T14:30:23.702Z,2.55
2022-08-19T14:32:50.492Z,2.40
2022-08-19T14:35:17.856Z,2.50
2022-08-19T14:37:46.240Z,2.25
2022-08-19T14:40:16.587Z,2.50
2022-08-19T14:42:43.770Z,2.42
2022-08-19T14:45:12.372Z,2.45
2022-08-19T14:47:40.943Z,2.40
2022-08-19T14:50:18.216Z,2.42
2022-08-19T14:52:50.023Z,2.40
2022-08-19T14:55:18.381Z,2.35
2022-08-19T14:57:45.659Z,2.35
2022-08-19T15:00:14.189Z,2.70
2022-08-19T15:02:42.578Z,2.40
2022-08-19T15:05:09.838Z,2.70
2022-08-19T15:07:37.461Z,2.63
2022-08-19T15:10:07.851Z,2.90
2022-08-19T15:12:41.172Z,2.35
2022-08-19T15:15:13.767Z,2.22
2022-08-19T15:17:54.965Z,2.28
2022-08-19T15:20:25.193Z,2.25
2022-08-19T15:22:52.142Z,1.92
2022-08-19T15:25:19.913Z,2.45
2022-08-19T15:27:47.742Z,2.30
2022-08-19T15:30:21.973Z,2.40
2022-08-19T15:32:49.407Z,2.20
2022-08-19T15:35:18.269Z,2.03
2022-08-19T15:37:46.082Z,2.13
2022-08-19T15:40:13.032Z,2.30
2022-08-19T15:42:44.584Z,2.50
2022-08-19T15:45:14.228Z,2.20
2022-08-19T15:47:41.486Z,2.20
2022-08-19T15:50:12.254Z,2.20
2022-08-19T15:53:04.683Z,2.30
2022-08-19T15:55:35.019Z,2.30
2022-08-19T15:58:29.536Z,2.30
2022-08-19T16:01:21.273Z,2.50
2022-08-19T16:04:13.848Z,2.40
2022-08-19T16:06:48.757Z,2.30
2022-08-19T16:09:17.469Z,2.65
2022-08-19T16:11:46.310Z,2.13
2022-08-19T16:14:18.863Z,2.30
2022-08-19T16:16:47.232Z,2.28
2022-08-19T16:19:17.716Z,2.30
2022-08-19T16:21:47.152Z,2.25
2022-08-19T16:24:15.908Z,2.05
2022-08-19T16:26:44.203Z,2.10
2022-08-19T16:29:13.253Z,2.78
2022-08-19T16:31:43.501Z,2.30
2022-08-19T16:34:10.632Z,2.30
2022-08-19T16:36:40.707Z,2.97
2022-08-19T16:39:09.520Z,1.90
2022-08-19T16:41:37.459Z,2.30
2022-08-19T16:44:06.086Z,2.05
2022-08-19T16:46:33.133Z,2.10
2022-08-19T16:49:00.508Z,2.60
2022-08-19T16:51:28.395Z,2.10
2022-08-19T16:53:55.306Z,2.25
2022-08-19T16:56:22.490Z,2.20
2022-08-19T16:58:50.479Z,2.15
2022-08-19T17:01:18.610Z,2.40
2022-08-19T17:03:45.737Z,2.13
2022-08-19T17:06:18.937Z,2.55
2022-08-19T17:11:20.089Z,2.17
2022-08-19T17:13:49.345Z,2.40
2022-08-19T17:16:18.018Z,2.60
2022-08-19T17:18:44.882Z,2.30
2022-08-19T17:21:13.136Z,2.10
2022-08-19T17:23:42.633Z,2.22
2022-08-19T17:26:17.297Z,1.95
2022-08-19T17:28:49.580Z,2.28
2022-08-19T17:31:17.923Z,2.50
2022-08-19T17:33:48.174Z,2.50
2022-08-19T17:36:23.510Z,2.15
2022-08-19T17:38:51.802Z,2.25
2022-08-19T17:41:18.916Z,2.38
2022-08-19T17:43:46.021Z,2.70
2022-08-19T17:46:18.693Z,2.47
2022-08-19T17:48:52.160Z,2.47
2022-08-19T17:51:42.466Z,2.42
2022-08-19T17:54:18.700Z,2.22
2022-08-19T17:56:46.571Z,2.33
2022-08-19T17:59:14.484Z,2.60
2022-08-19T18:01:51.805Z,2.40
2022-08-19T18:04:19.932Z,2.65
2022-08-19T18:06:53.775Z,2.30
2022-08-19T18:09:41.807Z,2.50
2022-08-19T18:12:12.213Z,2.30
2022-08-19T18:14:40.573Z,2.50
2022-08-19T18:17:10.732Z,2.75
2022-08-19T18:19:41.984Z,2.60
2022-08-19T18:22:22.363Z,2.63
2022-08-19T18:24:49.264Z,2.72
2022-08-19T18:27:16.103Z,2.95
2022-08-19T18:29:43.408Z,2.55
2022-08-19T18:32:12.664Z,2.85
2022-08-19T18:34:41.594Z,2.85
2022-08-19T18:37:08.576Z,2.95
2022-08-19T18:39:54.316Z,2.95
2022-08-19T18:42:40.010Z,3.33
2022-08-19T18:48:27.596Z,3.38
2022-08-19T18:50:57.030Z,3.28
2022-08-19T18:53:24.699Z,3.83
2022-08-19T18:55:54.894Z,3.20
2022-08-19T18:58:32.407Z,3.40
2022-08-19T19:01:10.551Z,3.53
2022-08-19T19:03:41.386Z,4.20
2022-08-19T19:06:08.734Z,3.47
2022-08-19T19:08:38.809Z,3.60
2022-08-19T19:11:06.194Z,3.38
2022-08-19T19:13:33.416Z,3.65
2022-08-19T19:16:04.421Z,4.05
2022-08-19T19:18:31.632Z,4.43
2022-08-19T19:20:58.486Z,4.43
2022-08-19T19:23:25.581Z,4.15
2022-08-19T19:25:52.522Z,4.30
2022-08-19T19:28:28.914Z,4.20
2022-08-19T19:30:58.562Z,3.33
2022-08-19T19:33:26.998Z,4.07
2022-08-19T19:35:53.987Z,3.60
2022-08-19T19:38:20.825Z,3.72
2022-08-19T19:40:47.752Z,4.22
2022-08-19T19:43:18.193Z,4.15
2022-08-19T19:45:46.810Z,4.68
2022-08-19T19:48:14.940Z,4.50
2022-08-19T19:50:43.118Z,4.75
2022-08-19T19:53:09.983Z,5.10
2022-08-19T19:55:36.962Z,4.80
2022-08-19T19:58:06.913Z,5.10
2022-08-19T20:00:34.510Z,5.00
2022-08-19T20:03:01.698Z,4.95
2022-08-19T20:05:28.672Z,5.63
2022-08-19T20:08:14.506Z,5.35
2022-08-19T20:10:43.161Z,4.53
2022-08-19T20:13:11.082Z,4.97
2022-08-19T20:15:42.298Z,5.20
2022-08-19T20:18:10.831Z,3.70
2022-08-19T20:20:38.020Z,3.90
2022-08-19T20:23:05.259Z,4.57
2022-08-19T20:25:32.434Z,5.80
2022-08-19T20:28:01.157Z,6.00
2022-08-19T20:30:31.099Z,6.15
2022-08-19T20:33:00.661Z,5.30
2022-08-19T20:35:27.918Z,5.38
2022-08-19T20:37:58.229Z,6.50
2022-08-19T20:40:26.767Z,6.18
2022-08-19T20:42:54.310Z,6.55
2022-08-19T20:45:32.800Z,6.35
2022-08-19T20:48:02.378Z,6.57
2022-08-19T20:50:30.289Z,7.00
2022-08-19T20:52:58.299Z,6.75
2022-08-19T20:55:26.464Z,6.50
2022-08-19T20:57:53.715Z,6.60
2022-08-19T21:00:20.786Z,6.53
2022-08-19T21:02:47.613Z,7.28
2022-08-19T21:05:14.952Z,6.97
2022-08-19T21:07:42.682Z,7.32
2022-08-19T21:10:09.682Z,7.93
2022-08-19T21:12:36.559Z,8.27
2022-08-19T21:15:04.337Z,8.05
2022-08-19T21:17:31.446Z,8.02
2022-08-19T21:19:58.284Z,8.57
2022-08-19T21:22:25.112Z,9.00
2022-08-19T21:24:52.013Z,9.18
2022-08-19T21:27:18.798Z,8.43
2022-08-19T21:29:45.742Z,9.40
2022-08-19T21:32:14.242Z,8.65
2022-08-19T21:34:43.694Z,8.98
2022-08-19T21:37:25.776Z,8.45
2022-08-19T21:39:54.827Z,8.98
2022-08-19T21:42:23.131Z,9.68
2022-08-19T21:44:49.963Z,9.07
2022-08-19T21:47:16.931Z,9.98
2022-08-19T21:49:43.798Z,9.20
2022-08-19T21:52:10.595Z,9.55
2022-08-19T21:54:37.722Z,9.80
2022-08-19T21:57:10.414Z,9.02
2022-08-19T21:59:39.785Z,9.50
2022-08-19T22:02:22.072Z,10.10
2022-08-19T22:04:53.051Z,10.70
2022-08-19T22:07:22.015Z,11.07
2022-08-19T22:09:50.734Z,10.95
2022-08-19T22:12:28.618Z,11.27
2022-08-19T22:14:56.821Z,11.07
2022-08-19T22:17:24.846Z,10.93
2022-08-19T22:19:52.479Z,11.82
2022-08-19T22:22:24.154Z,12.88
2022-08-19T22:24:52.799Z,13.48
2022-08-19T22:27:20.238Z,13.30
2022-08-19T22:29:47.070Z,12.85
2022-08-19T22:32:26.521Z,13.38
2022-08-19T22:34:56.758Z,14.35
2022-08-19T22:37:23.609Z,14.68
2022-08-19T22:39:50.509Z,14.57
2022-08-19T22:42:22.003Z,13.93
2022-08-19T22:44:49.362Z,14.63
2022-08-19T22:47:16.292Z,14.68
2022-08-19T22:49:44.515Z,13.95
2022-08-19T22:52:20.571Z,13.70
2022-08-19T22:54:51.059Z,14.55
2022-08-19T22:57:21.542Z,14.82
2022-08-19T22:59:49.896Z,16.60
2022-08-19T23:02:26.484Z,16.50
2022-08-19T23:04:53.707Z,16.75
2022-08-19T23:07:23.530Z,17.35
2022-08-19T23:09:51.075Z,20.20
2022-08-19T23:12:31.414Z,19.83
2022-08-19T23:15:16.728Z,19.80
2022-08-19T23:17:44.615Z,20.65
2022-08-19T23:20:15.903Z,20.30
2022-08-19T23:22:50.923Z,20.55
2022-08-19T23:25:21.323Z,20.00
2022-08-19T23:28:07.300Z,20.92
2022-08-19T23:30:40.082Z,20.73
2022-08-19T23:33:21.565Z,21.40
2022-08-19T23:35:48.773Z,21.92
2022-08-19T23:38:15.592Z,21.85
2022-08-19T23:40:42.416Z,22.55
2022-08-19T23:43:09.700Z,22.88
2022-08-19T23:45:40.797Z,23.15
2022-08-19T23:48:18.440Z,22.73
2022-08-19T23:50:45.865Z,23.13
2022-08-19T23:53:13.557Z,24.85
2022-08-19T23:55:44.071Z,25.15
